createdAt,value
2023-01-09T00:00:24.749Z,16.75
2023-01-09T00:03:31.160Z,16.17
2023-01-09T00:06:36.562Z,15.55
2023-01-09T00:09:42.043Z,15.88
2023-01-09T00:12:47.514Z,16.42
2023-01-09T00:15:56.021Z,18.12
2023-01-09T00:19:03.447Z,15.70
2023-01-09T00:22:09.248Z,15.25
2023-01-09T00:25:16.173Z,15.48
2023-01-09T00:28:22.571Z,16.48
2023-01-09T00:31:28.062Z,16.25
2023-01-09T00:34:33.971Z,16.67
2023-01-09T00:37:40.153Z,17.50
2023-01-09T00:40:45.131Z,18.80
2023-01-09T00:44:04.168Z,17.95
2023-01-09T00:47:14.170Z,18.42
2023-01-09T00:50:24.879Z,18.27
2023-01-09T00:53:32.973Z,20.60
2023-01-09T00:56:40.768Z,19.00
2023-01-09T00:59:46.849Z,21.48
2023-01-09T01:02:52.409Z,20.40
2023-01-09T01:06:17.050Z,19.85
2023-01-09T01:09:26.519Z,18.15
2023-01-09T01:12:32.674Z,17.60
2023-01-09T01:15:39.364Z,18.60
2023-01-09T01:18:45.110Z,19.30
2023-01-09T01:21:50.534Z,18.10
2023-01-09T01:24:57.627Z,18.82
2023-01-09T01:28:03.341Z,19.50
2023-01-09T01:31:11.923Z,18.57
2023-01-09T01:34:17.965Z,19.20
2023-01-09T01:37:25.653Z,19.20
2023-01-09T01:40:32.586Z,20.17
2023-01-09T01:43:38.969Z,21.23
2023-01-09T01:46:45.987Z,19.62
2023-01-09T01:49:52.558Z,19.23
2023-01-09T01:53:02.340Z,16.75
2023-01-09T01:56:24.542Z,19.87
2023-01-09T01:59:44.927Z,19.37
2023-01-09T02:02:52.753Z,20.30
2023-01-09T02:05:59.756Z,19.42
2023-01-09T02:09:07.068Z,19.77
2023-01-09T02:12:13.430Z,20.23
2023-01-09T02:15:24.248Z,20.50
2023-01-09T02:19:08.657Z,19.70
2023-01-09T02:22:36.311Z,19.17
2023-01-09T02:26:35.540Z,18.30
2023-01-09T02:29:59.023Z,19.20
2023-01-09T02:33:20.936Z,19.50
2023-01-09T02:36:33.998Z,18.65
2023-01-09T02:39:49.159Z,18.92
2023-01-09T02:42:49.257Z,19.27
2023-01-09T02:45:55.585Z,19.77
2023-01-09T02:49:01.096Z,18.65
2023-01-09T02:52:13.204Z,17.77
2023-01-09T02:55:30.290Z,17.92
2023-01-09T02:59:11.149Z,17.57
2023-01-09T03:02:43.563Z,16.65
2023-01-09T03:05:59.561Z,18.82
2023-01-09T03:09:10.788Z,19.55
2023-01-09T03:12:31.901Z,18.10
2023-01-09T03:15:40.674Z,18.17
2023-01-09T03:18:46.895Z,17.98
2023-01-09T03:21:53.349Z,17.67
2023-01-09T03:24:59.264Z,17.67
2023-01-09T03:28:10.060Z,17.15
2023-01-09T03:31:14.827Z,16.90
2023-01-09T03:34:21.106Z,18.20
2023-01-09T03:37:27.026Z,16.95
2023-01-09T03:40:34.173Z,17.57
2023-01-09T03:43:40.116Z,18.85
2023-01-09T03:46:47.236Z,18.57
2023-01-09T03:49:53.657Z,17.65
2023-01-09T03:53:00.608Z,18.25
2023-01-09T03:56:11.356Z,17.57
2023-01-09T03:59:16.347Z,17.77
2023-01-09T04:02:21.738Z,18.45
2023-01-09T04:05:27.544Z,16.73
2023-01-09T04:08:34.685Z,17.20
2023-01-09T04:11:42.569Z,18.77
2023-01-09T04:14:48.473Z,18.77
2023-01-09T04:17:55.393Z,17.12
2023-01-09T04:21:03.189Z,17.62
2023-01-09T04:24:10.413Z,15.93
2023-01-09T04:27:16.037Z,19.00
2023-01-09T04:30:23.845Z,17.62
2023-01-09T04:33:29.318Z,20.12
2023-01-09T04:36:34.221Z,19.70
2023-01-09T04:39:39.692Z,19.87
2023-01-09T04:42:47.429Z,19.92
2023-01-09T04:45:54.097Z,17.45
2023-01-09T04:48:59.749Z,18.60
2023-01-09T04:52:06.874Z,20.92
2023-01-09T04:55:12.246Z,20.00
2023-01-09T04:58:18.154Z,19.75
2023-01-09T05:01:24.188Z,19.23
2023-01-09T05:04:29.898Z,19.30
2023-01-09T05:07:34.861Z,18.57
2023-01-09T05:10:41.026Z,19.05
2023-01-09T05:13:46.142Z,19.82
2023-01-09T05:16:52.387Z,18.37
2023-01-09T05:19:58.235Z,19.62
2023-01-09T05:23:05.056Z,20.72
2023-01-09T05:26:12.945Z,19.17
2023-01-09T05:29:19.417Z,17.92
2023-01-09T05:32:24.403Z,19.10
2023-01-09T05:35:31.107Z,18.20
2023-01-09T05:38:38.258Z,15.88
2023-01-09T05:41:43.812Z,16.32
2023-01-09T05:44:49.140Z,18.85
2023-01-09T05:47:54.829Z,20.45
2023-01-09T05:51:02.239Z,17.45
2023-01-09T05:54:10.876Z,17.77
2023-01-09T05:57:17.717Z,17.45
2023-01-09T06:00:24.598Z,16.62
2023-01-09T06:03:31.765Z,15.35
2023-01-09T06:06:38.750Z,16.37
2023-01-09T06:09:44.929Z,15.85
2023-01-09T06:12:55.087Z,14.75
2023-01-09T06:15:57.148Z,16.87
2023-01-09T06:18:43.044Z,16.42
2023-01-09T06:21:36.159Z,16.65
2023-01-09T06:24:27.781Z,15.20
2023-01-09T06:27:34.895Z,14.23
2023-01-09T06:30:41.038Z,15.60
2023-01-09T06:33:46.711Z,16.02
2023-01-09T06:36:52.922Z,15.68
2023-01-09T06:40:01.486Z,15.47
2023-01-09T06:43:12.754Z,17.57
2023-01-09T06:46:20.733Z,14.95
2023-01-09T06:49:34.758Z,19.45
2023-01-09T06:52:42.339Z,15.00
2023-01-09T06:55:49.286Z,15.28
2023-01-09T06:58:56.303Z,15.05
2023-01-09T07:02:01.651Z,14.70
2023-01-09T07:05:08.845Z,14.43
2023-01-09T07:08:15.788Z,15.05
2023-01-09T07:11:24.955Z,14.50
2023-01-09T07:14:31.205Z,14.28
2023-01-09T07:17:36.384Z,15.23
2023-01-09T07:20:42.337Z,14.90
2023-01-09T07:23:47.800Z,15.23
2023-01-09T07:26:53.470Z,14.70
2023-01-09T07:30:00.286Z,15.13
2023-01-09T07:33:06.513Z,15.32
2023-01-09T07:36:11.596Z,15.48
2023-01-09T07:39:17.551Z,14.85
2023-01-09T07:42:23.834Z,14.93
2023-01-09T07:45:28.715Z,14.93
2023-01-09T07:48:35.043Z,14.83
2023-01-09T07:51:41.677Z,14.28
2023-01-09T07:54:40.857Z,14.35
2023-01-09T07:57:27.265Z,16.93
2023-01-09T08:00:21.479Z,14.58
2023-01-09T08:03:07.150Z,15.68
2023-01-09T08:06:03.728Z,15.85
2023-01-09T08:08:50.784Z,15.63
2023-01-09T08:11:51.604Z,15.53
2023-01-09T08:14:39.275Z,15.03
2023-01-09T08:17:36.527Z,16.05
2023-01-09T08:20:24.233Z,16.93
2023-01-09T08:23:18.504Z,14.15
2023-01-09T08:26:23.453Z,13.65
2023-01-09T08:29:29.343Z,13.40
2023-01-09T08:32:35.020Z,12.50
2023-01-09T08:35:43.586Z,13.80
2023-01-09T08:38:49.112Z,14.10
2023-01-09T08:42:13.342Z,14.80
2023-01-09T08:45:37.909Z,14.65
2023-01-09T08:48:42.955Z,13.25
2023-01-09T08:51:47.777Z,13.38
2023-01-09T08:54:52.617Z,12.83
2023-01-09T08:58:06.192Z,13.72
2023-01-09T09:01:12.407Z,13.40
2023-01-09T09:04:18.008Z,13.45
2023-01-09T09:07:24.551Z,13.80
2023-01-09T09:10:34.527Z,14.83
2023-01-09T09:13:42.247Z,12.37
2023-01-09T09:16:50.714Z,13.70
2023-01-09T09:19:56.462Z,15.15
2023-01-09T09:23:03.652Z,12.37
2023-01-09T09:26:10.274Z,13.90
2023-01-09T09:29:16.524Z,11.65
2023-01-09T09:32:22.419Z,12.80
2023-01-09T09:35:31.107Z,12.15
2023-01-09T09:38:35.966Z,12.53
2023-01-09T09:42:37.475Z,14.03
2023-01-09T09:46:19.969Z,13.05
2023-01-09T09:53:08.459Z,12.25
2023-01-09T09:56:09.066Z,10.98
2023-01-09T09:59:31.626Z,12.45
2023-01-09T10:03:01.100Z,11.97
2023-01-09T10:06:10.721Z,10.48
2023-01-09T10:09:52.138Z,12.07
2023-01-09T10:13:13.082Z,11.40
2023-01-09T10:16:36.913Z,12.00
2023-01-09T10:20:06.482Z,12.35
2023-01-09T10:24:00.344Z,12.07
2023-01-09T10:27:09.324Z,11.08
2023-01-09T10:30:33.044Z,11.93
2023-01-09T10:34:15.722Z,12.03
2023-01-09T10:37:49.096Z,11.38
2023-01-09T10:41:07.012Z,13.53
2023-01-09T10:44:41.937Z,11.15
2023-01-09T10:47:52.791Z,12.58
2023-01-09T10:50:57.633Z,11.05
2023-01-09T10:54:09.574Z,11.40
2023-01-09T10:57:23.388Z,10.90
2023-01-09T11:00:32.546Z,11.10
2023-01-09T11:03:37.727Z,12.47
2023-01-09T11:07:04.567Z,14.33
2023-01-09T11:10:22.499Z,12.63
2023-01-09T11:13:43.336Z,11.20
2023-01-09T11:16:50.527Z,12.85
2023-01-09T11:19:56.102Z,13.25
2023-01-09T11:23:03.792Z,11.48
2023-01-09T11:26:11.773Z,14.53
2023-01-09T11:29:36.192Z,11.57
2023-01-09T11:32:40.792Z,11.12
2023-01-09T11:35:48.365Z,10.45
2023-01-09T11:39:11.221Z,11.53
2023-01-09T11:42:17.673Z,11.10
2023-01-09T11:45:35.340Z,12.03
2023-01-09T11:48:49.190Z,10.58
2023-01-09T11:51:54.528Z,10.70
2023-01-09T11:55:14.318Z,12.73
2023-01-09T11:58:39.346Z,13.55
2023-01-09T12:02:16.233Z,10.35
2023-01-09T12:05:49.632Z,11.22
2023-01-09T12:09:28.693Z,9.50
2023-01-09T12:12:51.500Z,12.25
2023-01-09T12:16:02.578Z,10.88
2023-01-09T12:19:50.496Z,10.05
2023-01-09T12:23:29.825Z,13.13
2023-01-09T12:26:47.726Z,9.43
2023-01-09T12:30:27.065Z,9.78
2023-01-09T12:33:47.513Z,9.85
2023-01-09T12:37:06.891Z,9.28
2023-01-09T12:40:25.066Z,10.10
2023-01-09T12:44:03.450Z,9.73
2023-01-09T12:47:46.383Z,10.05
2023-01-09T12:51:35.256Z,13.22
2023-01-09T12:54:58.451Z,10.80
2023-01-09T12:58:12.284Z,9.83
2023-01-09T13:01:24.519Z,9.03
2023-01-09T13:04:50.601Z,7.67
2023-01-09T13:08:05.431Z,8.70
2023-01-09T13:11:22.583Z,7.72
2023-01-09T13:14:43.397Z,7.55
2023-01-09T13:17:58.603Z,8.35
2023-01-09T13:21:10.913Z,7.28
2023-01-09T13:24:35.595Z,7.65
2023-01-09T13:27:41.297Z,7.55
2023-01-09T13:31:16.703Z,7.60
2023-01-09T13:34:30.709Z,6.95
2023-01-09T13:37:45.752Z,8.23
2023-01-09T13:40:52.772Z,7.40
2023-01-09T13:44:13.805Z,7.30
2023-01-09T13:47:18.668Z,7.12
2023-01-09T13:50:37.172Z,7.12
2023-01-09T13:53:47.035Z,7.30
2023-01-09T13:57:36.801Z,7.12
2023-01-09T14:00:54.206Z,7.80
2023-01-09T14:04:00.834Z,7.72
2023-01-09T14:07:29.171Z,6.58
2023-01-09T14:10:47.262Z,7.62
2023-01-09T14:13:57.506Z,7.92
2023-01-09T14:17:03.598Z,7.45
2023-01-09T14:20:12.328Z,7.95
2023-01-09T14:23:35.300Z,7.08
2023-01-09T14:26:42.130Z,7.03
2023-01-09T14:29:58.069Z,7.97
2023-01-09T14:33:34.603Z,7.62
2023-01-09T14:36:40.918Z,7.67
2023-01-09T14:39:47.624Z,7.10
2023-01-09T14:42:55.104Z,8.78
2023-01-09T14:46:07.395Z,6.65
2023-01-09T14:50:03.347Z,6.53
2023-01-09T14:53:24.475Z,6.08
2023-01-09T14:56:44.796Z,6.08
2023-01-09T14:59:52.597Z,6.75
2023-01-09T15:02:59.860Z,7.40
2023-01-09T15:06:08.786Z,6.72
2023-01-09T15:09:38.712Z,6.15
2023-01-09T15:12:45.546Z,7.40
2023-01-09T15:15:50.872Z,5.90
2023-01-09T15:18:56.868Z,6.75
2023-01-09T15:22:18.734Z,6.28
2023-01-09T15:25:42.210Z,5.70
2023-01-09T15:28:48.043Z,6.80
2023-01-09T15:31:53.594Z,6.33
2023-01-09T15:35:01.789Z,6.53
2023-01-09T15:38:09.444Z,5.90
2023-01-09T15:41:27.319Z,5.75
2023-01-09T15:44:40.558Z,6.25
2023-01-09T15:47:47.694Z,5.87
2023-01-09T15:50:56.191Z,6.08
2023-01-09T15:54:05.098Z,6.22
2023-01-09T15:57:41.880Z,6.58
2023-01-09T16:00:53.040Z,8.15
2023-01-09T16:03:59.307Z,8.83
2023-01-09T16:07:07.914Z,5.55
2023-01-09T16:10:13.370Z,6.62
2023-01-09T16:13:21.873Z,6.60
2023-01-09T16:16:27.493Z,5.60
2023-01-09T16:20:01.381Z,6.00
2023-01-09T16:23:10.327Z,5.80
2023-01-09T16:26:23.570Z,5.58
2023-01-09T16:29:36.515Z,5.80
2023-01-09T16:32:38.726Z,6.08
2023-01-09T16:35:35.298Z,4.97
2023-01-09T16:38:41.917Z,5.12
2023-01-09T16:42:07.735Z,5.75
2023-01-09T16:45:13.609Z,5.17
2023-01-09T16:48:34.068Z,5.35
2023-01-09T16:51:41.018Z,5.17
2023-01-09T16:54:46.384Z,5.40
2023-01-09T16:57:53.656Z,5.90
2023-01-09T17:01:00.758Z,7.42
2023-01-09T17:04:08.387Z,5.42
2023-01-09T17:07:15.441Z,5.40
2023-01-09T17:10:25.244Z,5.62
2023-01-09T17:13:30.492Z,4.72
2023-01-09T17:16:40.953Z,5.28
2023-01-09T17:19:46.857Z,3.85
2023-01-09T17:22:52.924Z,4.95
2023-01-09T17:26:02.510Z,4.62
2023-01-09T17:29:11.388Z,4.87
2023-01-09T17:32:17.068Z,3.87
2023-01-09T17:35:25.632Z,4.22
2023-01-09T17:38:32.309Z,4.78
2023-01-09T17:41:38.130Z,3.72
2023-01-09T17:44:46.370Z,4.22
2023-01-09T17:47:51.741Z,4.33
2023-01-09T17:50:58.316Z,4.35
2023-01-09T17:54:04.412Z,4.55
2023-01-09T17:57:11.469Z,4.70
2023-01-09T18:00:18.852Z,4.80
2023-01-09T18:03:27.889Z,4.58
2023-01-09T18:06:37.152Z,4.42
2023-01-09T18:09:44.120Z,5.15
2023-01-09T18:12:53.134Z,4.45
2023-01-09T18:16:01.494Z,4.90
2023-01-09T18:19:07.985Z,5.15
2023-01-09T18:22:13.966Z,4.67
2023-01-09T18:25:22.962Z,4.35
2023-01-09T18:28:30.346Z,5.58
2023-01-09T18:31:36.289Z,5.72
2023-01-09T18:34:42.854Z,5.62
2023-01-09T18:37:50.889Z,5.83
2023-01-09T18:40:58.485Z,5.08
2023-01-09T18:44:08.001Z,5.90
2023-01-09T18:47:14.225Z,5.90
2023-01-09T18:50:22.242Z,5.75
2023-01-09T18:53:31.435Z,5.62
2023-01-09T18:56:37.836Z,6.62
2023-01-09T18:59:43.796Z,5.67
2023-01-09T19:02:49.929Z,7.03
2023-01-09T19:05:56.291Z,7.92
2023-01-09T19:09:03.515Z,6.20
2023-01-09T19:12:09.754Z,5.85
2023-01-09T19:15:19.145Z,5.92
2023-01-09T19:18:24.600Z,5.72
2023-01-09T19:21:36.106Z,6.47
2023-01-09T19:24:40.689Z,5.83
2023-01-09T19:27:46.438Z,5.55
2023-01-09T19:30:51.293Z,6.62
2023-01-09T19:33:58.279Z,6.72
2023-01-09T19:37:04.000Z,6.10
2023-01-09T19:40:10.748Z,6.83
2023-01-09T19:43:16.760Z,6.97
2023-01-09T19:46:24.207Z,7.55
2023-01-09T19:49:31.675Z,6.80
2023-01-09T19:52:38.979Z,7.05
2023-01-09T19:55:46.883Z,13.05
2023-01-09T19:58:53.245Z,7.83
2023-01-09T20:02:00.194Z,6.33
2023-01-09T20:05:07.932Z,6.28
2023-01-09T20:08:14.850Z,5.60
2023-01-09T20:11:21.775Z,5.40
2023-01-09T20:14:29.438Z,5.92
2023-01-09T20:17:36.498Z,5.72
2023-01-09T20:20:43.924Z,5.85
2023-01-09T20:23:49.293Z,4.37
2023-01-09T20:26:57.386Z,5.67
2023-01-09T20:30:03.032Z,5.33
2023-01-09T20:33:09.459Z,4.55
2023-01-09T20:36:17.716Z,4.60
2023-01-09T20:39:25.607Z,4.37
2023-01-09T20:42:31.411Z,4.55
2023-01-09T20:45:37.694Z,4.25
2023-01-09T20:48:44.157Z,4.33
2023-01-09T20:51:51.291Z,3.67
2023-01-09T20:55:00.494Z,4.30
2023-01-09T20:58:07.346Z,4.50
2023-01-09T21:01:16.414Z,3.80
2023-01-09T21:04:22.313Z,4.97
2023-01-09T21:07:22.110Z,6.00
2023-01-09T21:10:11.101Z,4.80
2023-01-09T21:13:05.075Z,6.00
2023-01-09T21:15:51.692Z,5.08
2023-01-09T21:18:45.631Z,5.65
2023-01-09T21:21:46.167Z,5.30
2023-01-09T21:24:50.601Z,5.87
2023-01-09T21:27:58.915Z,5.20
2023-01-09T21:31:04.620Z,4.75
2023-01-09T21:34:11.526Z,5.80
2023-01-09T21:37:17.496Z,6.40
2023-01-09T21:40:24.293Z,5.92
2023-01-09T21:43:50.706Z,5.83
2023-01-09T21:47:02.301Z,5.50
2023-01-09T21:50:07.070Z,4.95
2023-01-09T21:53:12.727Z,5.28
2023-01-09T21:56:18.702Z,5.33
2023-01-09T21:59:23.635Z,5.58
2023-01-09T22:02:34.422Z,4.35
2023-01-09T22:05:39.586Z,5.33
2023-01-09T22:08:45.203Z,5.08
2023-01-09T22:11:51.965Z,5.47
2023-01-09T22:14:57.687Z,5.08
2023-01-09T22:18:04.705Z,5.05
2023-01-09T22:21:12.369Z,4.97
2023-01-09T22:24:17.784Z,4.92
2023-01-09T22:27:23.366Z,5.65
2023-01-09T22:30:30.330Z,5.03
2023-01-09T22:33:36.120Z,4.47
2023-01-09T22:36:44.979Z,5.97
2023-01-09T22:39:51.240Z,5.87
2023-01-09T22:42:58.050Z,5.30
2023-01-09T22:46:04.276Z,5.37
2023-01-09T22:49:12.526Z,4.55
2023-01-09T22:52:19.885Z,5.58
2023-01-09T22:55:26.831Z,5.78
2023-01-09T22:58:32.034Z,4.37
2023-01-09T23:01:39.204Z,4.58
2023-01-09T23:04:46.412Z,5.12
2023-01-09T23:07:53.701Z,4.70
2023-01-09T23:10:59.674Z,4.78
2023-01-09T23:14:05.988Z,4.78
2023-01-09T23:17:12.622Z,4.40
2023-01-09T23:20:20.090Z,5.50
2023-01-09T23:23:27.889Z,5.28
2023-01-09T23:26:32.713Z,4.50
2023-01-09T23:29:38.802Z,4.58
2023-01-09T23:32:45.174Z,4.97
2023-01-09T23:35:51.920Z,4.72
2023-01-09T23:38:57.493Z,4.80
2023-01-09T23:42:20.530Z,5.15
2023-01-09T23:45:26.155Z,5.03
2023-01-09T23:48:32.682Z,5.25
2023-01-09T23:51:39.280Z,5.83
2023-01-09T23:54:45.139Z,4.22
2023-01-09T23:57:51.924Z,4.65
